首页
METAR-TAF:

METAR-TAF

机场 :

Cornelia, 喬治亞, 美国

纬度: 34-29-59N, 经度: 083-33-24W, 海拔: 441米

当前天气观测

该预报发布于30分钟前的09:55 UTC
风速5节,风向
温度 19°C
湿度 100%
气压 1019 hPa
能見度: 11.3公里
多云层高于600英尺
多云层高于1100英尺
阴天层高于4500英尺

METAR: KAJR 260955Z AUTO 10005KT 7SM BKN006 BKN011 OVC045 19/19 A3009 RMK AO2 T01920192

时间: 06:25 (10:25 UTC)


TAF: 丢失

超过4000个机场的气象观测和天气预报(METAR&TAF报告)。

可查询的气象台以黄色和红色小点在地图上表示。

将鼠标移到小点上方,可查看气象台名称。

然后点击查看天气观测和预报。

如需切换地图:点击带黑十字的绿色按钮放大地图;点击带横线的绿色按钮缩小地图;或者点击绿色箭头查看邻近地区的地图。


METAR-TAF: